• Join FlightAware (Why Join?)
  • Login
  • US Flag 
03:24PM EST


 

Airport Tracker/Info


-or-


 

Live Flight TrackerFlight Track Log ✈ JBU749 ✈ 13-Jun-2013 ✈ KMCO - TJSJ / SJU

Flight Track Log - Related Links

Times and Time Zones

All times are in EDT time to prevent confusion due to time zone crossing. See the JBU749 flight status page for this flight to view local times or setup timezone preferences in your user account.

Time Position Orientation Groundspeed Altitude Reporting Facility
EDT Latitude Longitude Course Direction KTS MPH feet Rate Location/Type
09:33PM 28.4167 -81.3167 148° Southeast 163 188 900  Level Orlando TRACON
09:34PM 28.3833 -81.2833 139° Southeast 215 247 1,900 2,040 Climbing Orlando TRACON
09:38PM 28.1020 -80.7210 149° Southeast  Level Estimated
09:39PM 28.0362 -80.6038 148° Southeast  Level Estimated
09:40PM 28.1410 -80.8170 139° Southeast 377 434 14,600  Level FlightAware
09:40PM 28.0750 -80.7440 136° Southeast 393 452 16,200 1,860 Climbing FlightAware
09:41PM 28.0270 -80.6890 135° Southeast 395 455 17,300 1,620 Climbing FlightAware
09:42PM 27.9680 -80.6240 136° Southeast 410 472 18,500 1,740 Climbing FlightAware
09:43PM 27.9180 -80.5670 135° Southeast 413 475 19,800 1,680 Climbing FlightAware
09:43PM 27.8550 -80.4970 136° Southeast 417 480 20,900 1,140 Climbing FlightAware
09:44PM 27.7880 -80.4200 135° Southeast 416 479 21,700 1,500 Climbing FlightAware
09:45PM 27.7280 -80.3550 136° Southeast 431 496 23,200 1,860 Climbing FlightAware
09:46PM 27.6530 -80.2720 136° Southeast 436 502 24,400 1,380 Climbing FlightAware
09:46PM 27.5980 -80.2100 135° Southeast 433 498 25,300 1,200 Climbing FlightAware
09:47PM 27.5080 -80.1110 136° Southeast 448 516 26,400 1,080 Climbing FlightAware
09:48PM 27.4490 -80.0460 136° Southeast 454 522 27,200 1,200 Climbing FlightAware
09:49PM 27.3890 -79.9790 135° Southeast 457 526 28,000 1,080 Climbing FlightAware
09:49PM 27.3190 -79.9030 136° Southeast 456 525 28,800 900 Climbing FlightAware
09:50PM 27.2270 -79.8000 135° Southeast 467 537 29,600 960 Climbing FlightAware
09:51PM 27.1700 -79.7110 126° Southeast 467 537 30,500 1,320 Climbing FlightAware
09:52PM 27.1230 -79.6290 123° Southeast 459 528 31,500 1,380 Climbing FlightAware
09:52PM 27.0770 -79.5490 123° Southeast 454 522 32,400 1,800 Climbing FlightAware
09:53PM 27.0320 -79.4720 123° Southeast 439 505 33,900 1,500 Climbing FlightAware
09:54PM 26.9870 -79.3960 124° Southeast 442 509 34,400 900 Climbing FlightAware
09:55PM 26.9310 -79.3010 123° Southeast 437 503 35,300 660 Climbing FlightAware
09:55PM 26.9080 -79.2630 124° Southeast 438 504 35,500 540 Climbing FlightAware
09:56PM 26.8240 -79.1200 123° Southeast 443 510 36,200 720 Climbing FlightAware
09:57PM 26.7730 -79.0340 124° Southeast 442 509 36,600 480 Climbing FlightAware
09:58PM 26.7270 -78.9580 124° Southeast 442 509 36,900 240 Climbing FlightAware
09:58PM 26.6790 -78.8760 123° Southeast 446 513 37,000 60 Climbing FlightAware
09:59PM 26.6330 -78.7990 124° Southeast 446 513 37,000  Level FlightAware
10:00PM 26.5870 -78.7230 124° Southeast 442 509 37,000  Level FlightAware
10:00PM 26.5420 -78.6480 124° Southeast 441 507 37,000 -120 Level FlightAware
10:01PM 26.4750 -78.5370 124° Southeast 439 505 36,900  Descending FlightAware
10:02PM 26.4240 -78.4520 124° Southeast 441 507 37,000 60 Climbing FlightAware
10:03PM 26.3770 -78.3730 124° Southeast 439 505 37,000  Level FlightAware
10:03PM 26.3270 -78.2900 124° Southeast 442 509 37,000  Level FlightAware
10:04PM 26.2780 -78.2100 124° Southeast 445 512 37,000  Level FlightAware
10:05PM 26.2270 -78.1260 124° Southeast 447 514 37,000  Level FlightAware
10:06PM 26.1850 -78.0580 125° Southeast 447 514 37,000  Level FlightAware
10:06PM 26.1340 -77.9730 124° Southeast 447 514 37,000  Level FlightAware
10:07PM 26.0820 -77.8890 125° Southeast 447 514 37,000  Level FlightAware
10:08PM 26.0370 -77.8150 124° Southeast 447 514 37,000  Level FlightAware
10:08PM 25.9880 -77.7340 124° Southeast 448 516 37,000  Level FlightAware
10:09PM 25.9350 -77.6480 124° Southeast 448 516 37,000  Level FlightAware
10:10PM 25.8850 -77.5650 124° Southeast 454 522 37,000  Level FlightAware
10:11PM 25.7960 -77.4190 124° Southeast 454 522 37,000  Level FlightAware
10:14PM 25.5690 -77.0540 125° Southeast 444 511 37,000  Level FlightAware
10:15PM 25.5150 -76.9630 123° Southeast 444 511 37,000  Level FlightAware
10:15PM 25.5040 -76.9440 123° Southeast 444 511 37,000  Level FlightAware
10:18PM 25.3640 -76.7050 123° Southeast 444 511 37,000  Level FlightAware
10:19PM 25.3130 -76.6200 124° Southeast 444 511 37,000  Level FlightAware
10:19PM 25.2800 -76.5630 123° Southeast 444 511 37,000  Level FlightAware
10:20PM 25.2340 -76.4850 123° Southeast 444 511 37,000  Level FlightAware
10:21PM 25.2000 -76.4270 123° Southeast 444 511 37,000  Level FlightAware
10:21PM 25.1540 -76.3490 123° Southeast 444 511 37,000  Level FlightAware
10:22PM 25.1200 -76.2910 123° Southeast 444 511 37,000  Level FlightAware
10:23PM 25.0750 -76.2150 123° Southeast 444 511 37,000  Level FlightAware
10:23PM 25.0390 -76.1540 123° Southeast 444 511 37,000  Level FlightAware
10:24PM 24.9940 -76.0760 122° Southeast 444 511 37,000  Level FlightAware
10:25PM 24.9747 -75.7675 122° Southeast 452 520 37,000  Level Miami Center
10:26PM 24.9256 -75.6372 113° Southeast 452 520 37,000  Level Miami Center
10:27PM 24.8786 -75.5072 112° Southeast 458 527 37,000  Level Miami Center
10:28PM 24.8333 -75.3772 111° Southeast 458 527 37,000  Level Miami Center
10:29PM 24.7839 -75.2406 112° Southeast 458 527 37,000  Level Miami Center
10:30PM 24.7344 -75.1131 113° Southeast 458 527 37,000  Level Miami Center
10:31PM 24.6642 -74.9997 124° Southeast 450 518 37,000  Level Miami Center
10:32PM 24.5894 -74.8889 127° Southeast 450 518 37,000  Level Miami Center
10:33PM 24.5086 -74.7736 128° Southeast 458 527 37,000  Level Miami Center
10:34PM 24.4317 -74.6608 127° Southeast 464 534 37,000  Level Miami Center
10:35PM 24.3483 -74.5392 127° Southeast 458 527 37,000  Level Miami Center
10:36PM 24.2692 -74.4289 128° Southeast 458 527 37,000  Level Miami Center
10:37PM 24.1919 -74.3144 126° Southeast 458 527 37,000  Level Miami Center
10:38PM 24.1128 -74.2022 128° Southeast 458 527 37,000  Level Miami Center
10:39PM 24.0356 -74.0900 127° Southeast 458 527 37,000  Level Miami Center
10:40PM 23.9561 -73.9758 127° Southeast 464 534 37,000  Level Miami Center
10:41PM 23.8764 -73.8642 128° Southeast 470 541 37,000  Level Miami Center
10:42PM 23.7928 -73.7481 128° Southeast 475 547 37,000  Level Miami Center
10:43PM 23.7172 -73.6364 126° Southeast 470 541 37,000  Level Miami Center
10:44PM 23.6353 -73.5228 128° Southeast 470 541 37,000  Level Miami Center
10:45PM 23.5533 -73.4072 128° Southeast 476 548 37,000  Level Miami Center
10:46PM 23.4756 -73.2939 127° Southeast 476 548 37,000  Level Miami Center
10:47PM 23.3911 -73.1808 129° Southeast 476 548 37,000  Level Miami Center
10:48PM 23.3153 -73.0700 127° Southeast 476 548 37,000  Level Miami Center
10:49PM 23.2311 -72.9550 129° Southeast 476 548 37,000  Level Miami Center
10:50PM 23.1547 -72.8397 126° Southeast 476 548 37,000  Level Miami Center
10:51PM 23.0786 -72.7247 126° Southeast 476 548 37,000  Level Miami Center
10:52PM 23.0022 -72.6078 125° Southeast 471 542 37,000  Level Miami Center
10:53PM 22.9239 -72.4953 127° Southeast 471 542 37,000  Level Miami Center
10:54PM 22.8453 -72.3786 126° Southeast 471 542 37,000  Level Miami Center
10:55PM 22.7708 -72.2619 125° Southeast 471 542 37,000  Level Miami Center
10:56PM 22.6922 -72.1478 127° Southeast 471 542 37,000  Level Miami Center
10:57PM 22.6156 -72.0358 127° Southeast 471 542 37,000  Level Miami Center
10:58PM 22.5389 -71.9264 127° Southeast 471 542 37,000  Level Miami Center
10:59PM 22.4622 -71.8125 126° Southeast 471 542 37,000  Level Miami Center
11:00PM 22.3875 -71.7008 126° Southeast 471 542 37,000  Level Miami Center
11:01PM 22.3083 -71.5850 126° Southeast 471 542 37,000  Level Miami Center
11:02PM 22.2333 -71.4739 126° Southeast 471 542 37,000  Level Miami Center
11:03PM 22.1631 -71.3736 127° Southeast 471 542 37,000  Level Miami Center
11:04PM 22.0839 -71.2583 127° Southeast 471 542 37,000  Level Miami Center
11:05PM 22.0044 -71.1431 127° Southeast 476 548 37,000  Level Miami Center
11:06PM 21.9269 -71.0278 126° Southeast 476 548 37,000  Level Miami Center
11:07PM 21.8453 -70.9108 127° Southeast 476 548 37,000  Level Miami Center
11:08PM 21.7658 -70.7961 127° Southeast 476 548 37,000  Level Miami Center
11:09PM 21.6839 -70.6817 128° Southeast 481 554 37,000  Level Miami Center
11:10PM 21.6022 -70.5672 127° Southeast 481 554 37,000  Level Miami Center
11:11PM 21.5222 -70.4528 127° Southeast 481 554 37,000  Level Miami Center
11:12PM 21.4425 -70.3408 127° Southeast 481 554 37,000  Level Miami Center
11:13PM 21.3606 -70.2267 128° Southeast 481 554 37,000  Level Miami Center
11:14PM 21.2806 -70.1150 128° Southeast 476 548 37,000  Level Miami Center
11:15PM 21.1986 -70.0014 128° Southeast 471 542 37,000  Level Miami Center
11:16PM 21.1183 -69.8856 127° Southeast 477 549 37,000  Level Miami Center
11:17PM 21.0358 -69.7722 128° Southeast 477 549 37,000  Level Miami Center
11:18PM 20.9558 -69.6611 128° Southeast 477 549 37,000  Level Miami Center
11:23PM 20.5030 -69.0120 128° Southeast 488 562 37,000  Level FlightAware
11:24PM 20.4430 -68.9290 128° Southeast 488 562 37,000  Level FlightAware
11:25PM 20.3680 -68.8230 127° Southeast 488 562 37,000  Level FlightAware
11:26PM 20.3010 -68.7310 128° Southeast 488 562 37,000  Level FlightAware
11:27PM 20.2350 -68.6410 128° Southeast 487 560 37,000  Level FlightAware
11:27PM 20.1820 -68.5670 127° Southeast 487 560 37,000  Level FlightAware
11:28PM 20.1310 -68.4970 128° Southeast 487 560 37,000  Level FlightAware
11:29PM 20.0630 -68.4030 128° Southeast 485 558 37,000  Level FlightAware
11:29PM 20.0040 -68.3220 128° Southeast 482 555 37,000  Level FlightAware
11:30PM 19.9480 -68.2450 128° Southeast 481 554 37,000  Level FlightAware
11:31PM 19.8750 -68.1450 128° Southeast 481 554 37,000  Level FlightAware
11:32PM 19.8290 -68.0810 127° Southeast 482 555 37,000  Level FlightAware
11:32PM 19.7580 -67.9850 128° Southeast 480 552 37,000 -180 Level FlightAware
11:33PM 19.7000 -67.9050 128° Southeast 476 548 36,800 -480 Descending FlightAware
11:34PM 19.6600 -67.8510 128° Southeast 476 548 36,400 -1,740 Descending FlightAware
11:34PM 19.5880 -67.7520 128° Southeast 484 557 34,400 -2,700 Descending FlightAware
11:35PM 19.5400 -67.6870 128° Southeast 487 560 32,900 -2,640 Descending FlightAware
11:36PM 19.4740 -67.5970 128° Southeast 485 558 30,900 -2,340 Descending FlightAware
11:37PM 19.4150 -67.5170 128° Southeast 477 549 29,400 -2,220 Descending FlightAware
11:37PM 19.3550 -67.4350 128° Southeast 469 540 27,700 -2,280 Descending FlightAware
11:38PM 19.3010 -67.3620 128° Southeast 463 533 26,200 -2,280 Descending FlightAware
11:39PM 19.2450 -67.2860 128° Southeast 455 524 24,600 -2,280 Descending FlightAware
11:39PM 19.1890 -67.2110 128° Southeast 445 512 23,000 -2,220 Descending FlightAware
11:40PM 19.1390 -67.1440 128° Southeast 433 498 21,500 -2,340 Descending FlightAware
11:41PM 19.0850 -67.0710 128° Southeast 421 484 19,800 -2,340 Descending FlightAware
11:41PM 19.0380 -67.0070 128° Southeast 406 467 18,300 -1,560 Descending FlightAware
11:42PM 18.9940 -66.9480 128° Southeast 403 464 17,700 -480 Descending FlightAware
11:43PM 18.9590 -66.9010 128° Southeast 403 464 17,700 -2,940 Level FlightAware
11:44PM 18.8990 -66.8210 128° Southeast 373 429 13,700 -3,780 Descending FlightAware
11:44PM 18.8550 -66.7620 128° Southeast 362 417 12,200 -2,100 Descending FlightAware
11:45PM 18.8110 -66.7030 128° Southeast 349 402 10,700 -1,260 Descending FlightAware
11:46PM 18.7730 -66.6510 128° Southeast 306 352 10,500 -660 Descending FlightAware
11:46PM 18.7370 -66.6040 129° Southeast 286 329 9,800 -1,020 Descending FlightAware
11:47PM 18.7150 -66.5730 127° Southeast 275 316 9,300 -900 Descending FlightAware
11:48PM 18.6830 -66.5300 128° Southeast 273 314 8,700 -540 Descending FlightAware
11:48PM 18.6670 -66.5070 126° Southeast 273 314 8,700  Level FlightAware
11:48PM 18.6510 -66.4860 129° Southeast 273 314 8,700  Level FlightAware
11:49PM 18.6290 -66.4540 126° Southeast 273 314 8,700 -1,920 Level FlightAware
11:51PM 18.5230 -66.3180 129° Southeast 247 284 3,600 -2,160 Descending FlightAware
11:52PM 18.5020 -66.2900 128° Southeast 245 282 3,200 -780 Descending FlightAware
11:52PM 18.4890 -66.2720 127° Southeast 246 283 3,000 -300 Descending FlightAware
11:52PM 18.4730 -66.2510 129° Southeast 246 283 3,000 -720 Level FlightAware
11:53PM 18.4460 -66.2150 128° Southeast 240 276 2,300 -960 Descending FlightAware
11:53PM 18.4360 -66.1990 123° Southeast 224 258 2,200 -240 Descending FlightAware
11:53PM 18.4340 -66.1860 99° East 213 245 2,200  Level FlightAware
11:54PM 18.4340 -66.1460 90° East 185 213 2,200 -300 Level FlightAware
11:54PM 18.4340 -66.1250 90° East 179 206 1,900 -960 Descending FlightAware
11:55PM 18.4340 -66.1020 90° East 175 201 1,400 -900 Descending FlightAware
11:55PM 18.4340 -66.0780 90° East 154 177 1,100 -720 Descending FlightAware
11:56PM 18.4340 -66.0580 90° East 132 152 700 -780 Descending FlightAware
11:57PM 18.4340 -66.0350 90° East 131 151 300 -660 Descending FlightAware
11:58PM 18.4340 -66.0000 90° East 58 67 -300 Descending FlightAware
11:58PM 18.4340 -65.9940 90° East 58 67  Level FlightAware
12:01AM 18.4350 -66.0040 276° West 27 31  Level FlightAware
12:01AM 18.4350 -66.0070 270° West 27 31  Level FlightAware